LFMU/BZR METAR and TAF weather

Enter ICAO airport designator
Station Type Date Time Source
LFMU METAR 2020/01/23 09:00 UTC NOAA

LFMU 230900Z AUTO 07015KT 9999 BKN015/// BKN035/// OVC041/// ///CB 11/06 Q1024 TEMPO 09020G30KT RA SCT020 BKN040


Station Type Date Time Source
LFMU Decoded METAR 2020/01/23 09:00 UTC NOAA

Beziers / Vias, France (LFMU) 43-19N 003-21E
Jan 23, 2020 - 04:00 AM EST / 2020.01.23 0900 UTC
Wind: from the ENE (070 degrees) at 17 MPH (15 KT):0
Visibility: greater than 7 mile(s):0
Sky conditions: overcast
Weather: Cumulonimbus clouds observed
Temperature: 51 F (11 C)
Dew Point: 42 F (6 C)
Relative Humidity: 71%
Pressure (altimeter): 30.24 in. Hg (1024 hPa)
ob: LFMU 230900Z AUTO 07015KT 9999 BKN015/// BKN035/// OVC041/// ///CB 11/06 Q1024 TEMPO 09020G30KT RA SCT020 BKN040
cycle: 9

Station Type Date Time Source
LFMU TAF 2020/01/23 09:25 UTC NOAA

TAF LFMU 230800Z 2309/2409 07015KT 9999 SCT020 BKN040
TEMPO 2310/2319 09020G30KT RA BKN010 SCT015TCU PROB30
TEMPO 2311/2315 2000 TSRA BKN010 BKN015CB
TEMPO 2319/2409 BKN012

Example: see airport list